sensor_id;sensor_type;location;lat;lon;timestamp;pressure;altitude;pressure_sealevel;temperature;humidity
39141;BME280;24875;48.436;10.298;2024-03-29T00:01:22;94817.38;;;7.30;100.00
39141;BME280;24875;48.436;10.298;2024-03-29T00:03:47;94815.56;;;7.30;100.00
39141;BME280;24875;48.436;10.298;2024-03-29T00:06:13;94815.97;;;7.27;100.00
39141;BME280;24875;48.436;10.298;2024-03-29T00:08:38;94821.75;;;7.17;100.00
39141;BME280;24875;48.436;10.298;2024-03-29T00:11:04;94807.63;;;7.18;100.00
39141;BME280;24875;48.436;10.298;2024-03-29T00:13:30;94809.94;;;7.06;100.00
39141;BME280;24875;48.436;10.298;2024-03-29T00:15:56;94807.53;;;7.05;100.00
39141;BME280;24875;48.436;10.298;2024-03-29T00:18:22;94813.41;;;6.86;100.00
39141;BME280;24875;48.436;10.298;2024-03-29T00:20:48;94813.63;;;6.64;100.00
39141;BME280;24875;48.436;10.298;2024-03-29T00:23:13;94819.22;;;6.40;100.00
39141;BME280;24875;48.436;10.298;2024-03-29T00:25:39;94808.69;;;6.54;100.00
39141;BME280;24875;48.436;10.298;2024-03-29T00:28:05;94819.31;;;6.67;100.00
39141;BME280;24875;48.436;10.298;2024-03-29T00:30:31;94804.06;;;6.77;100.00
39141;BME280;24875;48.436;10.298;2024-03-29T00:32:57;94794.09;;;6.87;100.00
39141;BME280;24875;48.436;10.298;2024-03-29T00:35:23;94789.50;;;6.68;100.00
39141;BME280;24875;48.436;10.298;2024-03-29T00:37:49;94784.91;;;6.70;100.00
39141;BME280;24875;48.436;10.298;2024-03-29T00:40:15;94772.69;;;6.56;100.00
39141;BME280;24875;48.436;10.298;2024-03-29T00:42:41;94769.22;;;6.49;100.00
39141;BME280;24875;48.436;10.298;2024-03-29T00:45:07;94759.91;;;6.67;100.00
39141;BME280;24875;48.436;10.298;2024-03-29T00:47:33;94752.63;;;6.63;100.00
39141;BME280;24875;48.436;10.298;2024-03-29T00:50:00;94748.00;;;6.65;100.00
39141;BME280;24875;48.436;10.298;2024-03-29T00:52:26;94732.75;;;6.48;100.00
39141;BME280;24875;48.436;10.298;2024-03-29T00:54:51;94743.47;;;6.53;100.00
39141;BME280;24875;48.436;10.298;2024-03-29T00:57:17;94722.94;;;6.50;100.00
39141;BME280;24875;48.436;10.298;2024-03-29T00:59:43;94726.22;;;6.37;100.00
39141;BME280;24875;48.436;10.298;2024-03-29T01:02:09;94705.00;;;6.26;100.00
39141;BME280;24875;48.436;10.298;2024-03-29T01:04:35;94675.44;;;6.25;100.00
39141;BME280;24875;48.436;10.298;2024-03-29T01:07:02;94674.19;;;6.21;100.00
39141;BME280;24875;48.436;10.298;2024-03-29T01:09:28;94675.69;;;6.09;100.00
39141;BME280;24875;48.436;10.298;2024-03-29T01:11:53;94683.44;;;5.61;100.00
39141;BME280;24875;48.436;10.298;2024-03-29T01:14:19;94683.63;;;5.45;100.00
39141;BME280;24875;48.436;10.298;2024-03-29T01:16:44;94673.84;;;5.68;100.00
39141;BME280;24875;48.436;10.298;2024-03-29T01:19:10;94684.88;;;5.64;100.00
39141;BME280;24875;48.436;10.298;2024-03-29T01:21:36;94690.31;;;5.83;100.00
39141;BME280;24875;48.436;10.298;2024-03-29T01:24:04;94670.69;;;5.73;100.00
39141;BME280;24875;48.436;10.298;2024-03-29T01:26:30;94679.19;;;5.60;100.00
39141;BME280;24875;48.436;10.298;2024-03-29T01:28:55;94696.03;;;5.58;100.00
39141;BME280;24875;48.436;10.298;2024-03-29T01:31:22;94697.09;;;5.78;100.00
39141;BME280;24875;48.436;10.298;2024-03-29T01:33:47;94693.69;;;5.63;100.00
39141;BME280;24875;48.436;10.298;2024-03-29T01:36:13;94688.41;;;5.56;100.00
39141;BME280;24875;48.436;10.298;2024-03-29T01:38:39;94693.88;;;5.61;100.00
39141;BME280;24875;48.436;10.298;2024-03-29T01:41:06;94700.34;;;5.80;100.00
39141;BME280;24875;48.436;10.298;2024-03-29T01:43:31;94689.31;;;5.49;100.00
39141;BME280;24875;48.436;10.298;2024-03-29T01:45:58;94682.97;;;5.58;100.00
39141;BME280;24875;48.436;10.298;2024-03-29T01:48:26;94681.88;;;5.67;100.00
39141;BME280;24875;48.436;10.298;2024-03-29T01:50:55;94686.84;;;5.62;100.00
39141;BME280;24875;48.436;10.298;2024-03-29T01:53:23;94690.25;;;5.62;100.00
39141;BME280;24875;48.436;10.298;2024-03-29T01:55:51;94697.34;;;5.33;100.00
39141;BME280;24875;48.436;10.298;2024-03-29T01:58:19;94702.63;;;5.54;100.00
39141;BME280;24875;48.436;10.298;2024-03-29T02:00:51;94712.13;;;5.26;100.00
39141;BME280;24875;48.436;10.298;2024-03-29T02:03:18;94703.94;;;5.15;100.00
39141;BME280;24875;48.436;10.298;2024-03-29T02:05:45;94701.78;;;5.18;100.00
39141;BME280;24875;48.436;10.298;2024-03-29T02:08:13;94700.53;;;4.85;100.00
39141;BME280;24875;48.436;10.298;2024-03-29T02:10:40;94700.34;;;5.01;100.00
39141;BME280;24875;48.436;10.298;2024-03-29T02:13:06;94688.03;;;4.95;100.00
39141;BME280;24875;48.436;10.298;2024-03-29T02:15:34;94685.69;;;5.00;100.00
39141;BME280;24875;48.436;10.298;2024-03-29T02:18:01;94690.81;;;5.08;100.00
39141;BME280;24875;48.436;10.298;2024-03-29T02:20:27;94695.84;;;4.95;100.00
39141;BME280;24875;48.436;10.298;2024-03-29T02:22:57;94694.84;;;5.11;100.00
39141;BME280;24875;48.436;10.298;2024-03-29T02:25:27;94680.72;;;5.20;100.00
39141;BME280;24875;48.436;10.298;2024-03-29T02:27:54;94696.28;;;4.99;100.00
39141;BME280;24875;48.436;10.298;2024-03-29T02:30:21;94684.53;;;5.03;100.00
39141;BME280;24875;48.436;10.298;2024-03-29T02:32:47;94676.41;;;4.83;100.00
39141;BME280;24875;48.436;10.298;2024-03-29T02:35:14;94679.38;;;4.81;100.00
39141;BME280;24875;48.436;10.298;2024-03-29T02:37:40;94690.25;;;4.98;100.00
39141;BME280;24875;48.436;10.298;2024-03-29T02:40:07;94700.53;;;5.14;100.00
39141;BME280;24875;48.436;10.298;2024-03-29T02:42:36;94691.50;;;5.31;100.00
39141;BME280;24875;48.436;10.298;2024-03-29T02:45:03;94693.41;;;5.23;100.00
39141;BME280;24875;48.436;10.298;2024-03-29T02:47:29;94701.16;;;5.16;100.00
39141;BME280;24875;48.436;10.298;2024-03-29T02:49:56;94703.31;;;5.13;100.00
39141;BME280;24875;48.436;10.298;2024-03-29T02:52:22;94695.31;;;5.14;100.00
39141;BME280;24875;48.436;10.298;2024-03-29T02:54:48;94699.25;;;5.25;100.00
39141;BME280;24875;48.436;10.298;2024-03-29T02:57:14;94681.88;;;5.17;100.00
39141;BME280;24875;48.436;10.298;2024-03-29T02:59:42;94685.09;;;5.34;100.00
39141;BME280;24875;48.436;10.298;2024-03-29T03:02:08;94683.03;;;5.29;100.00
39141;BME280;24875;48.436;10.298;2024-03-29T03:04:34;94675.94;;;5.23;100.00
39141;BME280;24875;48.436;10.298;2024-03-29T03:07:00;94667.03;;;5.18;100.00
39141;BME280;24875;48.436;10.298;2024-03-29T03:09:52;94652.59;;;5.22;100.00
39141;BME280;24875;48.436;10.298;2024-03-29T03:12:36;94649.28;;;5.28;100.00
39141;BME280;24875;48.436;10.298;2024-03-29T03:15:05;94632.56;;;5.43;100.00
39141;BME280;24875;48.436;10.298;2024-03-29T03:17:32;94627.75;;;4.76;100.00
39141;BME280;24875;48.436;10.298;2024-03-29T03:19:57;94630.34;;;4.90;100.00
39141;BME280;24875;48.436;10.298;2024-03-29T03:22:24;94649.44;;;4.77;100.00
39141;BME280;24875;48.436;10.298;2024-03-29T03:24:50;94643.13;;;4.85;100.00
39141;BME280;24875;48.436;10.298;2024-03-29T03:27:16;94642.47;;;4.83;100.00
39141;BME280;24875;48.436;10.298;2024-03-29T03:29:42;94657.16;;;4.84;100.00
39141;BME280;24875;48.436;10.298;2024-03-29T03:32:10;94651.38;;;5.03;100.00
39141;BME280;24875;48.436;10.298;2024-03-29T03:34:35;94640.38;;;5.22;100.00
39141;BME280;24875;48.436;10.298;2024-03-29T03:37:03;94652.22;;;5.39;100.00
39141;BME280;24875;48.436;10.298;2024-03-29T03:39:28;94651.31;;;5.46;100.00
39141;BME280;24875;48.436;10.298;2024-03-29T03:41:55;94653.59;;;5.35;100.00
39141;BME280;24875;48.436;10.298;2024-03-29T03:44:20;94648.91;;;5.31;100.00
39141;BME280;24875;48.436;10.298;2024-03-29T03:46:49;94674.00;;;5.46;100.00
39141;BME280;24875;48.436;10.298;2024-03-29T03:49:16;94650.66;;;5.44;100.00
39141;BME280;24875;48.436;10.298;2024-03-29T03:51:43;94666.91;;;5.40;100.00
39141;BME280;24875;48.436;10.298;2024-03-29T03:54:09;94659.06;;;5.40;100.00
39141;BME280;24875;48.436;10.298;2024-03-29T03:56:35;94655.81;;;5.38;100.00
39141;BME280;24875;48.436;10.298;2024-03-29T03:59:01;94652.22;;;5.39;100.00
39141;BME280;24875;48.436;10.298;2024-03-29T04:01:28;94640.59;;;5.42;100.00
39141;BME280;24875;48.436;10.298;2024-03-29T04:03:53;94619.03;;;5.54;100.00
39141;BME280;24875;48.436;10.298;2024-03-29T04:06:21;94630.22;;;5.69;100.00
39141;BME280;24875;48.436;10.298;2024-03-29T04:08:47;94622.16;;;5.64;100.00
39141;BME280;24875;48.436;10.298;2024-03-29T04:11:13;94630.00;;;5.64;100.00
39141;BME280;24875;48.436;10.298;2024-03-29T04:13:39;94633.09;;;5.53;100.00
39141;BME280;24875;48.436;10.298;2024-03-29T04:16:07;94647.00;;;5.39;100.00
39141;BME280;24875;48.436;10.298;2024-03-29T04:18:32;94621.88;;;5.38;100.00
39141;BME280;24875;48.436;10.298;2024-03-29T04:21:00;94615.00;;;5.72;100.00
39141;BME280;24875;48.436;10.298;2024-03-29T04:23:27;94635.84;;;5.66;100.00
39141;BME280;24875;48.436;10.298;2024-03-29T04:25:54;94651.28;;;5.11;100.00
39141;BME280;24875;48.436;10.298;2024-03-29T04:28:19;94644.09;;;5.13;100.00
39141;BME280;24875;48.436;10.298;2024-03-29T04:30:51;94626.63;;;5.14;100.00
39141;BME280;24875;48.436;10.298;2024-03-29T04:33:16;94645.59;;;5.22;100.00
39141;BME280;24875;48.436;10.298;2024-03-29T04:35:51;94634.72;;;5.75;100.00
39141;BME280;24875;48.436;10.298;2024-03-29T04:38:17;94626.63;;;5.70;100.00
39141;BME280;24875;48.436;10.298;2024-03-29T04:40:45;94641.03;;;5.80;100.00
39141;BME280;24875;48.436;10.298;2024-03-29T04:43:11;94644.47;;;5.66;100.00
39141;BME280;24875;48.436;10.298;2024-03-29T04:45:38;94632.84;;;5.69;100.00
39141;BME280;24875;48.436;10.298;2024-03-29T04:48:05;94637.88;;;5.85;100.00
39141;BME280;24875;48.436;10.298;2024-03-29T04:50:32;94629.63;;;5.67;100.00
39141;BME280;24875;48.436;10.298;2024-03-29T04:52:58;94628.16;;;5.79;100.00
39141;BME280;24875;48.436;10.298;2024-03-29T04:55:25;94625.41;;;5.87;100.00
39141;BME280;24875;48.436;10.298;2024-03-29T04:57:52;94628.69;;;5.95;100.00
39141;BME280;24875;48.436;10.298;2024-03-29T05:00:19;94616.94;;;6.05;100.00
39141;BME280;24875;48.436;10.298;2024-03-29T05:02:46;94630.06;;;6.12;100.00
39141;BME280;24875;48.436;10.298;2024-03-29T05:05:12;94623.16;;;6.04;100.00
39141;BME280;24875;48.436;10.298;2024-03-29T05:07:39;94633.44;;;6.06;100.00
39141;BME280;24875;48.436;10.298;2024-03-29T05:10:06;94644.72;;;5.86;100.00
39141;BME280;24875;48.436;10.298;2024-03-29T05:12:33;94643.19;;;6.18;100.00
39141;BME280;24875;48.436;10.298;2024-03-29T05:15:01;94664.31;;;6.44;100.00
39141;BME280;24875;48.436;10.298;2024-03-29T05:17:27;94658.13;;;6.24;100.00
39141;BME280;24875;48.436;10.298;2024-03-29T05:19:54;94689.13;;;6.06;100.00
39141;BME280;24875;48.436;10.298;2024-03-29T05:22:21;94698.09;;;5.98;100.00
39141;BME280;24875;48.436;10.298;2024-03-29T05:24:47;94705.50;;;5.94;100.00
39141;BME280;24875;48.436;10.298;2024-03-29T05:27:14;94708.81;;;6.03;100.00
39141;BME280;24875;48.436;10.298;2024-03-29T05:29:40;94699.22;;;6.09;100.00
39141;BME280;24875;48.436;10.298;2024-03-29T05:32:08;94702.63;;;6.31;100.00
39141;BME280;24875;48.436;10.298;2024-03-29T05:34:35;94699.91;;;6.18;100.00
39141;BME280;24875;48.436;10.298;2024-03-29T05:37:01;94700.22;;;6.29;100.00
39141;BME280;24875;48.436;10.298;2024-03-29T05:39:28;94683.66;;;6.22;100.00
39141;BME280;24875;48.436;10.298;2024-03-29T05:41:54;94661.22;;;6.34;100.00
39141;BME280;24875;48.436;10.298;2024-03-29T05:44:21;94666.00;;;6.31;100.00
39141;BME280;24875;48.436;10.298;2024-03-29T05:46:49;94660.34;;;6.48;100.00
39141;BME280;24875;48.436;10.298;2024-03-29T05:49:17;94655.19;;;6.61;100.00
39141;BME280;24875;48.436;10.298;2024-03-29T05:51:43;94635.16;;;6.47;100.00
39141;BME280;24875;48.436;10.298;2024-03-29T05:54:10;94626.75;;;6.24;100.00
39141;BME280;24875;48.436;10.298;2024-03-29T05:56:36;94628.59;;;6.30;100.00
39141;BME280;24875;48.436;10.298;2024-03-29T05:59:03;94641.38;;;6.46;100.00
39141;BME280;24875;48.436;10.298;2024-03-29T06:01:29;94632.94;;;6.44;100.00
39141;BME280;24875;48.436;10.298;2024-03-29T06:03:56;94629.50;;;6.44;100.00
39141;BME280;24875;48.436;10.298;2024-03-29T06:06:31;94642.81;;;6.76;100.00
39141;BME280;24875;48.436;10.298;2024-03-29T06:08:57;94655.56;;;6.58;100.00
39141;BME280;24875;48.436;10.298;2024-03-29T06:11:24;94658.28;;;6.71;100.00
39141;BME280;24875;48.436;10.298;2024-03-29T06:13:50;94667.44;;;6.88;100.00
39141;BME280;24875;48.436;10.298;2024-03-29T06:16:34;94668.06;;;6.90;100.00
39141;BME280;24875;48.436;10.298;2024-03-29T06:19:18;94709.97;;;6.90;100.00
39141;BME280;24875;48.436;10.298;2024-03-29T06:21:46;94716.97;;;7.17;100.00
39141;BME280;24875;48.436;10.298;2024-03-29T06:24:13;94710.72;;;7.18;100.00
39141;BME280;24875;48.436;10.298;2024-03-29T06:26:40;94739.16;;;7.21;100.00
39141;BME280;24875;48.436;10.298;2024-03-29T06:29:07;94730.19;;;7.09;100.00
39141;BME280;24875;48.436;10.298;2024-03-29T06:31:34;94715.06;;;7.04;100.00
39141;BME280;24875;48.436;10.298;2024-03-29T06:34:01;94712.16;;;7.26;100.00
39141;BME280;24875;48.436;10.298;2024-03-29T06:36:28;94696.78;;;7.11;100.00
39141;BME280;24875;48.436;10.298;2024-03-29T06:38:57;94712.78;;;7.28;100.00
39141;BME280;24875;48.436;10.298;2024-03-29T06:41:23;94706.50;;;7.17;100.00
39141;BME280;24875;48.436;10.298;2024-03-29T06:43:50;94721.94;;;7.45;100.00
39141;BME280;24875;48.436;10.298;2024-03-29T06:46:16;94731.59;;;7.38;100.00
39141;BME280;24875;48.436;10.298;2024-03-29T06:48:43;94728.09;;;7.65;100.00
39141;BME280;24875;48.436;10.298;2024-03-29T06:51:09;94740.25;;;7.79;100.00
39141;BME280;24875;48.436;10.298;2024-03-29T06:53:36;94736.22;;;7.83;100.00
39141;BME280;24875;48.436;10.298;2024-03-29T06:56:05;94720.06;;;7.73;100.00
39141;BME280;24875;48.436;10.298;2024-03-29T06:58:31;94706.78;;;7.87;100.00
39141;BME280;24875;48.436;10.298;2024-03-29T07:00:58;94694.25;;;7.70;100.00
39141;BME280;24875;48.436;10.298;2024-03-29T07:03:24;94716.75;;;7.58;100.00
39141;BME280;24875;48.436;10.298;2024-03-29T07:05:51;94686.72;;;7.61;100.00
39141;BME280;24875;48.436;10.298;2024-03-29T07:08:17;94691.25;;;7.86;100.00
39141;BME280;24875;48.436;10.298;2024-03-29T07:10:44;94685.25;;;8.11;100.00
39141;BME280;24875;48.436;10.298;2024-03-29T07:13:12;94681.03;;;8.17;100.00
39141;BME280;24875;48.436;10.298;2024-03-29T07:15:38;94696.31;;;7.94;100.00
39141;BME280;24875;48.436;10.298;2024-03-29T07:18:05;94698.63;;;8.16;100.00
39141;BME280;24875;48.436;10.298;2024-03-29T07:20:32;94672.19;;;8.31;100.00
39141;BME280;24875;48.436;10.298;2024-03-29T07:22:59;94662.53;;;8.38;100.00
39141;BME280;24875;48.436;10.298;2024-03-29T07:25:26;94670.97;;;8.52;100.00
39141;BME280;24875;48.436;10.298;2024-03-29T07:27:52;94681.47;;;8.27;100.00
39141;BME280;24875;48.436;10.298;2024-03-29T07:30:20;94685.94;;;8.58;100.00
39141;BME280;24875;48.436;10.298;2024-03-29T07:32:47;94691.94;;;8.14;100.00
39141;BME280;24875;48.436;10.298;2024-03-29T07:35:13;94685.50;;;8.23;100.00
39141;BME280;24875;48.436;10.298;2024-03-29T07:37:40;94676.44;;;8.38;100.00
39141;BME280;24875;48.436;10.298;2024-03-29T07:40:11;94673.81;;;8.45;100.00
39141;BME280;24875;48.436;10.298;2024-03-29T07:42:37;94676.63;;;8.43;100.00
39141;BME280;24875;48.436;10.298;2024-03-29T07:45:04;94669.75;;;8.61;100.00
39141;BME280;24875;48.436;10.298;2024-03-29T07:47:32;94673.38;;;8.86;100.00
39141;BME280;24875;48.436;10.298;2024-03-29T07:49:58;94667.94;;;8.81;100.00
39141;BME280;24875;48.436;10.298;2024-03-29T07:52:25;94651.38;;;8.81;100.00
39141;BME280;24875;48.436;10.298;2024-03-29T07:54:51;94656.81;;;8.73;100.00
39141;BME280;24875;48.436;10.298;2024-03-29T07:57:18;94648.28;;;9.03;100.00
39141;BME280;24875;48.436;10.298;2024-03-29T07:59:44;94649.25;;;9.28;100.00
39141;BME280;24875;48.436;10.298;2024-03-29T08:02:11;94647.00;;;9.31;100.00
39141;BME280;24875;48.436;10.298;2024-03-29T08:04:39;94636.72;;;9.67;100.00
39141;BME280;24875;48.436;10.298;2024-03-29T08:07:08;94639.41;;;9.98;100.00
39141;BME280;24875;48.436;10.298;2024-03-29T08:09:37;94647.44;;;10.16;100.00
39141;BME280;24875;48.436;10.298;2024-03-29T08:12:05;94644.56;;;10.48;100.00
39141;BME280;24875;48.436;10.298;2024-03-29T08:14:31;94658.72;;;10.47;100.00
39141;BME280;24875;48.436;10.298;2024-03-29T08:16:58;94669.72;;;11.10;100.00
39141;BME280;24875;48.436;10.298;2024-03-29T08:19:27;94667.88;;;12.00;100.00
39141;BME280;24875;48.436;10.298;2024-03-29T08:21:55;94666.81;;;12.19;100.00
39141;BME280;24875;48.436;10.298;2024-03-29T08:24:22;94671.28;;;11.89;96.13
39141;BME280;24875;48.436;10.298;2024-03-29T08:26:48;94668.91;;;11.52;98.82
39141;BME280;24875;48.436;10.298;2024-03-29T08:29:15;94662.00;;;11.69;100.00
39141;BME280;24875;48.436;10.298;2024-03-29T08:31:41;94661.22;;;11.68;100.00
39141;BME280;24875;48.436;10.298;2024-03-29T08:34:07;94649.81;;;11.86;97.78
39141;BME280;24875;48.436;10.298;2024-03-29T08:36:38;94647.03;;;12.10;98.85
39141;BME280;24875;48.436;10.298;2024-03-29T08:39:06;94655.66;;;12.46;97.06
39141;BME280;24875;48.436;10.298;2024-03-29T08:41:32;94649.06;;;12.26;93.01
39141;BME280;24875;48.436;10.298;2024-03-29T08:43:59;94664.44;;;12.29;95.02
39141;BME280;24875;48.436;10.298;2024-03-29T08:46:25;94661.13;;;12.74;95.10
39141;BME280;24875;48.436;10.298;2024-03-29T08:48:53;94673.53;;;12.04;95.73
39141;BME280;24875;48.436;10.298;2024-03-29T08:51:20;94673.06;;;12.24;98.07
39141;BME280;24875;48.436;10.298;2024-03-29T08:53:46;94671.97;;;11.67;98.13
39141;BME280;24875;48.436;10.298;2024-03-29T08:56:14;94667.81;;;12.07;96.01
39141;BME280;24875;48.436;10.298;2024-03-29T08:58:41;94668.19;;;12.21;96.14
39141;BME280;24875;48.436;10.298;2024-03-29T09:01:08;94657.47;;;12.46;96.86
39141;BME280;24875;48.436;10.298;2024-03-29T09:03:35;94662.28;;;12.78;93.93
39141;BME280;24875;48.436;10.298;2024-03-29T09:06:02;94658.41;;;12.92;94.61
39141;BME280;24875;48.436;10.298;2024-03-29T09:08:28;94666.41;;;13.65;100.00
39141;BME280;24875;48.436;10.298;2024-03-29T09:10:55;94658.69;;;14.59;97.96
39141;BME280;24875;48.436;10.298;2024-03-29T09:13:23;94668.59;;;14.63;86.83
39141;BME280;24875;48.436;10.298;2024-03-29T09:15:52;94671.59;;;14.66;86.44
39141;BME280;24875;48.436;10.298;2024-03-29T09:18:19;94679.03;;;13.86;88.91
39141;BME280;24875;48.436;10.298;2024-03-29T09:20:56;94674.59;;;13.30;94.88
39141;BME280;24875;48.436;10.298;2024-03-29T09:23:22;94678.97;;;13.01;95.87
39141;BME280;24875;48.436;10.298;2024-03-29T09:25:50;94678.88;;;13.19;91.96
39141;BME280;24875;48.436;10.298;2024-03-29T09:28:17;94691.50;;;13.29;90.06
39141;BME280;24875;48.436;10.298;2024-03-29T09:30:45;94687.81;;;13.07;94.40
39141;BME280;24875;48.436;10.298;2024-03-29T09:33:11;94701.41;;;12.99;95.66
39141;BME280;24875;48.436;10.298;2024-03-29T09:35:38;94706.94;;;13.09;99.95
39141;BME280;24875;48.436;10.298;2024-03-29T09:38:04;94712.13;;;13.38;96.66
39141;BME280;24875;48.436;10.298;2024-03-29T09:40:32;94721.53;;;13.11;94.56
39141;BME280;24875;48.436;10.298;2024-03-29T09:43:00;94713.81;;;13.33;92.00
39141;BME280;24875;48.436;10.298;2024-03-29T09:45:33;94716.69;;;13.42;94.36
39141;BME280;24875;48.436;10.298;2024-03-29T09:48:02;94715.44;;;13.22;100.00
39141;BME280;24875;48.436;10.298;2024-03-29T09:50:30;94714.03;;;12.97;100.00
39141;BME280;24875;48.436;10.298;2024-03-29T09:52:57;94716.34;;;13.05;100.00
39141;BME280;24875;48.436;10.298;2024-03-29T09:55:24;94713.25;;;13.19;100.00
39141;BME280;24875;48.436;10.298;2024-03-29T09:57:51;94716.34;;;12.64;100.00
39141;BME280;24875;48.436;10.298;2024-03-29T10:00:18;94707.84;;;13.03;100.00
39141;BME280;24875;48.436;10.298;2024-03-29T10:02:46;94700.13;;;13.01;100.00
39141;BME280;24875;48.436;10.298;2024-03-29T10:05:16;94704.81;;;12.99;100.00
39141;BME280;24875;48.436;10.298;2024-03-29T10:07:44;94709.09;;;13.00;100.00
39141;BME280;24875;48.436;10.298;2024-03-29T10:10:11;94714.97;;;13.02;100.00
39141;BME280;24875;48.436;10.298;2024-03-29T10:12:38;94726.47;;;13.08;100.00
39141;BME280;24875;48.436;10.298;2024-03-29T10:15:05;94734.50;;;13.01;100.00
39141;BME280;24875;48.436;10.298;2024-03-29T10:17:36;94737.72;;;13.15;100.00
39141;BME280;24875;48.436;10.298;2024-03-29T10:20:03;94741.72;;;12.94;100.00
39141;BME280;24875;48.436;10.298;2024-03-29T10:22:36;94746.56;;;12.97;100.00
39141;BME280;24875;48.436;10.298;2024-03-29T10:25:02;94748.56;;;12.84;100.00
39141;BME280;24875;48.436;10.298;2024-03-29T10:27:29;94735.97;;;12.86;100.00
39141;BME280;24875;48.436;10.298;2024-03-29T10:29:56;94732.44;;;12.92;100.00
39141;BME280;24875;48.436;10.298;2024-03-29T10:32:22;94723.50;;;12.75;100.00
39141;BME280;24875;48.436;10.298;2024-03-29T10:34:51;94716.53;;;12.80;100.00
39141;BME280;24875;48.436;10.298;2024-03-29T10:37:18;94709.25;;;12.76;100.00
39141;BME280;24875;48.436;10.298;2024-03-29T10:39:52;94705.44;;;12.72;100.00
39141;BME280;24875;48.436;10.298;2024-03-29T10:42:20;94709.91;;;12.60;100.00
39141;BME280;24875;48.436;10.298;2024-03-29T10:44:48;94699.34;;;12.60;100.00
39141;BME280;24875;48.436;10.298;2024-03-29T10:47:17;94682.69;;;12.71;100.00
39141;BME280;24875;48.436;10.298;2024-03-29T10:49:45;94680.53;;;12.68;100.00
39141;BME280;24875;48.436;10.298;2024-03-29T10:52:16;94656.28;;;12.71;100.00
39141;BME280;24875;48.436;10.298;2024-03-29T10:54:44;94669.06;;;12.74;100.00
39141;BME280;24875;48.436;10.298;2024-03-29T10:57:17;94661.38;;;12.95;100.00
39141;BME280;24875;48.436;10.298;2024-03-29T10:59:51;94662.66;;;12.52;100.00
39141;BME280;24875;48.436;10.298;2024-03-29T11:02:32;94674.28;;;12.92;100.00
39141;BME280;24875;48.436;10.298;2024-03-29T11:05:02;94662.88;;;12.91;100.00
39141;BME280;24875;48.436;10.298;2024-03-29T11:07:34;94666.50;;;12.79;100.00
39141;BME280;24875;48.436;10.298;2024-03-29T11:10:02;94666.16;;;12.64;100.00
39141;BME280;24875;48.436;10.298;2024-03-29T11:12:41;94680.34;;;12.92;100.00
39141;BME280;24875;48.436;10.298;2024-03-29T11:15:14;94670.19;;;12.78;100.00
39141;BME280;24875;48.436;10.298;2024-03-29T11:17:42;94661.00;;;12.69;100.00
39141;BME280;24875;48.436;10.298;2024-03-29T11:20:10;94655.84;;;12.97;100.00
39141;BME280;24875;48.436;10.298;2024-03-29T11:22:37;94637.47;;;13.13;100.00
39141;BME280;24875;48.436;10.298;2024-03-29T11:25:04;94631.59;;;13.34;100.00
39141;BME280;24875;48.436;10.298;2024-03-29T11:27:32;94605.81;;;13.80;100.00
39141;BME280;24875;48.436;10.298;2024-03-29T11:30:01;94620.00;;;14.02;100.00
39141;BME280;24875;48.436;10.298;2024-03-29T11:32:36;94608.69;;;14.18;100.00
39141;BME280;24875;48.436;10.298;2024-03-29T11:35:04;94612.84;;;14.14;100.00
39141;BME280;24875;48.436;10.298;2024-03-29T11:37:31;94614.94;;;14.12;100.00
39141;BME280;24875;48.436;10.298;2024-03-29T11:39:59;94595.91;;;14.15;100.00
39141;BME280;24875;48.436;10.298;2024-03-29T11:42:37;94590.31;;;14.28;100.00
39141;BME280;24875;48.436;10.298;2024-03-29T11:45:05;94590.22;;;14.23;100.00
39141;BME280;24875;48.436;10.298;2024-03-29T11:47:33;94587.81;;;14.21;100.00
39141;BME280;24875;48.436;10.298;2024-03-29T11:50:00;94582.38;;;14.44;100.00
39141;BME280;24875;48.436;10.298;2024-03-29T11:52:26;94582.22;;;14.83;100.00
39141;BME280;24875;48.436;10.298;2024-03-29T11:54:54;94574.59;;;14.87;100.00
39141;BME280;24875;48.436;10.298;2024-03-29T11:57:20;94573.50;;;14.66;100.00
39141;BME280;24875;48.436;10.298;2024-03-29T11:59:48;94577.28;;;15.08;100.00
39141;BME280;24875;48.436;10.298;2024-03-29T12:02:15;94565.31;;;15.22;100.00
39141;BME280;24875;48.436;10.298;2024-03-29T12:04:41;94576.50;;;15.24;96.22
39141;BME280;24875;48.436;10.298;2024-03-29T12:07:08;94569.03;;;15.21;92.53
39141;BME280;24875;48.436;10.298;2024-03-29T12:09:35;94568.34;;;15.30;91.91
39141;BME280;24875;48.436;10.298;2024-03-29T12:12:05;94574.34;;;15.64;89.20
39141;BME280;24875;48.436;10.298;2024-03-29T12:14:35;94580.13;;;15.82;87.03
39141;BME280;24875;48.436;10.298;2024-03-29T12:17:10;94566.69;;;16.15;85.48
39141;BME280;24875;48.436;10.298;2024-03-29T12:19:37;94560.97;;;16.01;81.57
39141;BME280;24875;48.436;10.298;2024-03-29T12:22:06;94557.84;;;16.09;83.58
39141;BME280;24875;48.436;10.298;2024-03-29T12:24:36;94556.50;;;16.28;86.76
39141;BME280;24875;48.436;10.298;2024-03-29T12:27:04;94556.88;;;16.73;86.29
39141;BME280;24875;48.436;10.298;2024-03-29T12:29:30;94567.56;;;16.78;84.94
39141;BME280;24875;48.436;10.298;2024-03-29T12:31:59;94561.16;;;17.15;78.86
39141;BME280;24875;48.436;10.298;2024-03-29T12:34:27;94550.09;;;16.92;71.28
39141;BME280;24875;48.436;10.298;2024-03-29T12:36:53;94554.66;;;16.60;82.32
39141;BME280;24875;48.436;10.298;2024-03-29T12:39:21;94539.47;;;16.60;82.68
39141;BME280;24875;48.436;10.298;2024-03-29T12:41:47;94529.66;;;17.43;78.54
39141;BME280;24875;48.436;10.298;2024-03-29T12:44:14;94532.81;;;17.35;85.46
39141;BME280;24875;48.436;10.298;2024-03-29T12:46:40;94534.38;;;17.26;82.00
39141;BME280;24875;48.436;10.298;2024-03-29T12:49:10;94521.31;;;18.06;83.74